createdAt,value
2023-05-17T00:00:58.119Z,102213.88
2023-05-17T00:03:26.058Z,102212.06
2023-05-17T00:05:53.476Z,102213.06
2023-05-17T00:08:20.335Z,102211.75
2023-05-17T00:10:47.045Z,102213.22
2023-05-17T00:13:13.807Z,102215.34
2023-05-17T00:15:40.673Z,102219.09
2023-05-17T00:18:07.587Z,102218.91
2023-05-17T00:20:35.951Z,102220.56
2023-05-17T00:23:03.226Z,102222.97
2023-05-17T00:25:30.672Z,102223.13
2023-05-17T00:27:57.605Z,102223.13
2023-05-17T00:30:24.315Z,102216.06
2023-05-17T00:32:51.204Z,102214.59
2023-05-17T00:35:18.082Z,102221.44
2023-05-17T00:37:48.005Z,102225.47
2023-05-17T00:40:16.419Z,102213.06
2023-05-17T00:42:43.295Z,102208.34
2023-05-17T00:45:10.950Z,102210.63
2023-05-17T00:47:37.881Z,102216.00
2023-05-17T00:50:06.398Z,102220.72
2023-05-17T00:52:33.427Z,102215.63
2023-05-17T00:55:00.422Z,102209.41
2023-05-17T00:57:29.251Z,102218.03
2023-05-17T00:59:56.921Z,102215.59
2023-05-17T01:02:23.972Z,102222.94
2023-05-17T01:04:51.049Z,102222.75
2023-05-17T01:07:18.201Z,102223.03
2023-05-17T01:09:45.682Z,102235.13
2023-05-17T01:12:30.794Z,102231.38
2023-05-17T01:15:03.590Z,102230.88
2023-05-17T01:17:48.804Z,102231.84
2023-05-17T01:20:27.012Z,102234.63
2023-05-17T01:23:11.941Z,102231.22
2023-05-17T01:25:55.483Z,102230.06
2023-05-17T01:28:24.812Z,102225.75
2023-05-17T01:30:52.395Z,102227.63
2023-05-17T01:33:20.587Z,102228.06
2023-05-17T01:35:47.581Z,102223.16
2023-05-17T01:38:14.384Z,102229.31
2023-05-17T01:40:49.797Z,102220.31
2023-05-17T01:43:35.514Z,102220.94
2023-05-17T01:46:14.486Z,102228.13
2023-05-17T01:48:49.804Z,102223.19
2023-05-17T01:51:20.287Z,102219.13
2023-05-17T01:53:51.958Z,102217.16
2023-05-17T01:56:33.543Z,102228.13
2023-05-17T01:59:04.705Z,102215.72
2023-05-17T02:01:33.082Z,102212.94
2023-05-17T02:03:59.903Z,102220.78
2023-05-17T02:06:26.675Z,102222.78
2023-05-17T02:08:53.818Z,102222.91
2023-05-17T02:11:20.706Z,102227.75
2023-05-17T02:13:47.470Z,102225.47
2023-05-17T02:16:14.275Z,102227.75
2023-05-17T02:18:41.377Z,102227.34
2023-05-17T02:21:08.302Z,102233.66
2023-05-17T02:23:35.027Z,102238.63
2023-05-17T02:26:01.791Z,102236.16
2023-05-17T02:28:28.520Z,102235.84
2023-05-17T02:30:56.617Z,102225.09
2023-05-17T02:33:23.740Z,102224.59
2023-05-17T02:35:50.713Z,102233.03
2023-05-17T02:38:17.620Z,102225.44
2023-05-17T02:40:44.408Z,102223.41
2023-05-17T02:43:11.145Z,102230.69
2023-05-17T02:45:37.880Z,102218.91
2023-05-17T02:48:05.015Z,102211.13
2023-05-17T02:50:31.901Z,102216.13
2023-05-17T02:52:58.656Z,102214.56
2023-05-17T02:55:25.559Z,102212.13
2023-05-17T02:57:52.380Z,102221.16
2023-05-17T03:02:53.008Z,102222.63
2023-05-17T03:05:19.847Z,102214.19
2023-05-17T03:07:46.574Z,102218.28
2023-05-17T03:10:13.354Z,102221.16
2023-05-17T03:12:40.132Z,102222.00
2023-05-17T03:15:07.345Z,102212.66
2023-05-17T03:17:34.201Z,102213.31
2023-05-17T03:20:01.113Z,102205.00
2023-05-17T03:22:28.266Z,102199.34
2023-05-17T03:24:55.020Z,102202.69
2023-05-17T03:27:21.831Z,102204.72
2023-05-17T03:29:51.282Z,102203.06
2023-05-17T03:32:18.094Z,102203.59
2023-05-17T03:34:44.877Z,102211.53
2023-05-17T03:37:11.641Z,102197.19
2023-05-17T03:39:38.402Z,102207.66
2023-05-17T03:42:06.423Z,102211.16
2023-05-17T03:44:33.176Z,102201.31
2023-05-17T03:46:59.998Z,102201.09
2023-05-17T03:49:26.725Z,102200.25
2023-05-17T03:51:53.473Z,102206.84
2023-05-17T03:54:20.227Z,102214.03
2023-05-17T03:56:49.203Z,102199.66
2023-05-17T03:59:16.960Z,102197.41
2023-05-17T04:01:45.658Z,102197.59
2023-05-17T04:04:12.525Z,102204.06
2023-05-17T04:06:41.224Z,102209.72
2023-05-17T04:09:11.015Z,102208.06
2023-05-17T04:11:38.384Z,102209.72
2023-05-17T04:14:05.713Z,102211.06
2023-05-17T04:16:32.592Z,102209.09
2023-05-17T04:19:02.564Z,102208.06
2023-05-17T04:21:29.557Z,102198.75
2023-05-17T04:23:56.306Z,102193.72
2023-05-17T04:26:23.634Z,102202.34
2023-05-17T04:28:50.920Z,102197.44
2023-05-17T04:31:18.289Z,102201.09
2023-05-17T04:33:45.428Z,102191.19
2023-05-17T04:36:12.298Z,102201.75
2023-05-17T04:38:39.149Z,102197.31
2023-05-17T04:41:06.788Z,102194.88
2023-05-17T04:43:33.760Z,102195.56
2023-05-17T04:46:00.975Z,102204.28
2023-05-17T04:48:32.684Z,102202.13
2023-05-17T04:51:06.897Z,102206.84
2023-05-17T04:53:33.985Z,102209.50
2023-05-17T04:56:00.832Z,102210.84
2023-05-17T04:58:27.655Z,102213.59
2023-05-17T05:00:54.522Z,102217.00
2023-05-17T05:03:22.814Z,102223.47
2023-05-17T05:05:49.814Z,102215.53
2023-05-17T05:08:16.609Z,102220.34
2023-05-17T05:10:43.489Z,102227.53
2023-05-17T05:13:10.223Z,102232.75
2023-05-17T05:15:37.773Z,102226.09
2023-05-17T05:18:04.811Z,102226.72
2023-05-17T05:20:32.225Z,102227.53
2023-05-17T05:23:00.959Z,102236.34
2023-05-17T05:25:28.474Z,102236.34
2023-05-17T05:28:00.581Z,102238.38
2023-05-17T05:30:27.498Z,102239.59
2023-05-17T05:32:54.354Z,102242.56
2023-05-17T05:35:26.467Z,102242.56
2023-05-17T05:37:54.641Z,102245.22
2023-05-17T05:40:21.547Z,102256.69
2023-05-17T05:42:48.487Z,102258.84
2023-05-17T05:45:15.312Z,102257.09
2023-05-17T05:47:42.166Z,102269.69
2023-05-17T05:50:09.875Z,102259.44
2023-05-17T05:52:36.759Z,102266.31
2023-05-17T05:55:04.060Z,102258.19
2023-05-17T05:57:30.844Z,102260.50
2023-05-17T05:59:57.700Z,102264.31
2023-05-17T06:02:24.787Z,102276.41
2023-05-17T06:04:51.575Z,102282.34
2023-05-17T06:07:18.545Z,102272.06
2023-05-17T06:09:45.331Z,102292.16
2023-05-17T06:12:12.176Z,102290.09
2023-05-17T06:14:39.000Z,102290.66
2023-05-17T06:17:05.899Z,102290.66
2023-05-17T06:19:32.898Z,102282.50
2023-05-17T06:21:59.857Z,102296.88
2023-05-17T06:24:26.601Z,102299.13
2023-05-17T06:26:53.364Z,102299.63
2023-05-17T06:29:20.186Z,102307.53
2023-05-17T06:31:46.955Z,102294.97
2023-05-17T06:34:13.792Z,102297.44
2023-05-17T06:36:40.934Z,102293.09
2023-05-17T06:39:07.723Z,102291.19
2023-05-17T06:41:35.157Z,102287.97
2023-05-17T06:44:04.227Z,102287.00
2023-05-17T06:46:31.000Z,102291.09
2023-05-17T06:48:58.010Z,102289.16
2023-05-17T06:51:24.957Z,102291.59
2023-05-17T06:53:51.837Z,102288.38
2023-05-17T06:56:19.763Z,102297.06
2023-05-17T06:58:49.412Z,102290.72
2023-05-17T07:01:19.594Z,102296.00
2023-05-17T07:03:46.539Z,102300.13
2023-05-17T07:06:13.536Z,102307.03
2023-05-17T07:08:40.680Z,102300.03
2023-05-17T07:11:07.801Z,102296.47
2023-05-17T07:13:34.562Z,102293.53
2023-05-17T07:16:01.335Z,102295.00
2023-05-17T07:18:28.329Z,102290.97
2023-05-17T07:20:55.226Z,102290.66
2023-05-17T07:23:21.948Z,102300.00
2023-05-17T07:25:48.905Z,102293.47
2023-05-17T07:28:16.231Z,102296.56
2023-05-17T07:30:43.042Z,102293.09
2023-05-17T07:33:09.968Z,102289.66
2023-05-17T07:35:36.912Z,102291.94
2023-05-17T07:38:03.777Z,102292.56
2023-05-17T07:40:30.588Z,102295.28
2023-05-17T07:42:59.595Z,102295.06
2023-05-17T07:45:26.662Z,102296.81
2023-05-17T07:47:55.339Z,102293.75
2023-05-17T07:50:22.357Z,102291.91
2023-05-17T07:52:49.114Z,102289.16
2023-05-17T07:55:17.056Z,102286.28
2023-05-17T07:57:47.463Z,102288.72
2023-05-17T08:00:14.883Z,102295.44
2023-05-17T08:02:41.735Z,102293.59
2023-05-17T08:05:08.991Z,102288.28
2023-05-17T08:07:35.940Z,102291.72
2023-05-17T08:10:02.891Z,102291.63
2023-05-17T08:12:29.709Z,102297.66
2023-05-17T08:14:57.695Z,102291.59
2023-05-17T08:17:24.642Z,102293.66
2023-05-17T08:19:51.478Z,102296.47
2023-05-17T08:22:19.294Z,102287.94
2023-05-17T08:24:46.993Z,102289.16
2023-05-17T08:27:13.790Z,102290.72
2023-05-17T08:29:40.922Z,102296.38
2023-05-17T08:32:09.287Z,102289.59
2023-05-17T08:34:39.978Z,102291.94
2023-05-17T08:37:06.808Z,102291.59
2023-05-17T08:39:33.879Z,102295.59
2023-05-17T08:42:02.701Z,102284.66
2023-05-17T08:44:29.600Z,102282.00
2023-05-17T08:46:59.704Z,102281.00
2023-05-17T08:49:28.933Z,102276.97
2023-05-17T08:51:59.527Z,102279.78
2023-05-17T08:54:26.826Z,102282.81
2023-05-17T08:57:00.741Z,102289.13
2023-05-17T08:59:33.994Z,102285.66
2023-05-17T09:02:01.788Z,102278.53
2023-05-17T09:04:31.165Z,102288.75
2023-05-17T09:06:59.293Z,102284.81
2023-05-17T09:09:26.356Z,102291.50
2023-05-17T09:11:53.150Z,102290.88
2023-05-17T09:14:19.973Z,102284.75
2023-05-17T09:16:46.957Z,102279.47
2023-05-17T09:19:18.018Z,102286.06
2023-05-17T09:21:47.471Z,102278.19
2023-05-17T09:24:14.410Z,102281.50
2023-05-17T09:26:45.539Z,102280.59
2023-05-17T09:29:15.366Z,102281.84
2023-05-17T09:31:42.987Z,102278.19
2023-05-17T09:34:12.963Z,102280.34
2023-05-17T09:36:43.721Z,102276.03
2023-05-17T09:39:13.447Z,102281.09
2023-05-17T09:41:45.593Z,102288.34
2023-05-17T09:44:14.094Z,102282.41
2023-05-17T09:46:44.506Z,102291.13
2023-05-17T09:49:11.531Z,102280.78
2023-05-17T09:51:42.854Z,102284.97
2023-05-17T09:54:10.577Z,102287.34
2023-05-17T09:56:40.282Z,102279.03
2023-05-17T09:59:16.232Z,102282.78
2023-05-17T10:01:48.126Z,102293.34
2023-05-17T10:04:20.727Z,102292.56
2023-05-17T10:06:52.350Z,102281.63
2023-05-17T10:09:24.354Z,102284.06
2023-05-17T10:11:53.149Z,102275.97
2023-05-17T10:14:33.960Z,102277.97
2023-05-17T10:17:03.412Z,102269.09
2023-05-17T10:19:31.431Z,102271.09
2023-05-17T10:22:08.385Z,102256.94
2023-05-17T10:24:46.730Z,102255.72
2023-05-17T10:27:13.871Z,102263.03
2023-05-17T10:29:42.277Z,102258.94
2023-05-17T10:32:09.544Z,102248.44
2023-05-17T10:34:39.750Z,102248.84
2023-05-17T10:37:07.782Z,102244.41
2023-05-17T10:39:38.810Z,102233.06
2023-05-17T10:42:14.731Z,102236.25
2023-05-17T10:44:42.452Z,102239.41
2023-05-17T10:47:10.258Z,102243.81
2023-05-17T10:49:45.317Z,102242.03
2023-05-17T10:52:13.266Z,102233.31
2023-05-17T10:54:43.337Z,102235.59
2023-05-17T10:57:20.010Z,102239.84
2023-05-17T10:59:58.504Z,102230.53
2023-05-17T11:02:31.916Z,102229.66
2023-05-17T11:05:00.570Z,102220.56
2023-05-17T11:07:32.218Z,102222.03
2023-05-17T11:10:10.788Z,102226.06
2023-05-17T11:12:40.872Z,102224.78
2023-05-17T11:15:08.842Z,102218.03
2023-05-17T11:17:52.805Z,102221.81
2023-05-17T11:20:25.840Z,102210.00
2023-05-17T11:23:00.619Z,102211.56
2023-05-17T11:25:36.246Z,102210.69
2023-05-17T11:28:18.323Z,102201.75
2023-05-17T11:30:51.533Z,102222.28
2023-05-17T11:33:32.490Z,102221.31
2023-05-17T11:36:05.453Z,102220.06
2023-05-17T11:38:33.159Z,102216.44
2023-05-17T11:43:52.129Z,102227.03
2023-05-17T11:46:21.044Z,102223.03
2023-05-17T11:48:50.314Z,102225.84
2023-05-17T11:51:18.230Z,102223.59
2023-05-17T11:53:47.253Z,102223.16
2023-05-17T11:56:15.208Z,102225.44
2023-05-17T11:58:43.472Z,102218.25
2023-05-17T12:01:10.796Z,102219.91
2023-05-17T12:03:37.737Z,102218.28
2023-05-17T12:06:05.513Z,102216.19
2023-05-17T12:08:34.869Z,102212.03
2023-05-17T12:11:02.316Z,102205.53
2023-05-17T12:13:30.397Z,102209.50
2023-05-17T12:15:59.857Z,102212.50
2023-05-17T12:18:40.028Z,102210.66
2023-05-17T12:21:08.832Z,102213.28
2023-05-17T12:23:50.976Z,102196.25
2023-05-17T12:26:19.525Z,102204.00
2023-05-17T12:28:59.959Z,102206.28
2023-05-17T12:31:36.731Z,102211.84
2023-05-17T12:34:06.083Z,102205.47
2023-05-17T12:36:34.234Z,102199.16
2023-05-17T12:39:01.855Z,102205.38
2023-05-17T12:41:30.044Z,102196.28
2023-05-17T12:44:13.865Z,102197.81
2023-05-17T12:46:43.002Z,102203.91
2023-05-17T12:49:11.932Z,102198.84
2023-05-17T12:51:44.564Z,102186.13
2023-05-17T12:54:25.106Z,102196.25
2023-05-17T12:56:52.182Z,102185.94
2023-05-17T12:59:26.062Z,102187.66
2023-05-17T13:01:58.001Z,102188.13
2023-05-17T13:04:34.534Z,102183.56
2023-05-17T13:07:03.743Z,102178.22
2023-05-17T13:09:32.157Z,102183.53
2023-05-17T13:12:02.146Z,102182.81
2023-05-17T13:14:36.488Z,102178.56
2023-05-17T13:17:05.091Z,102179.84
2023-05-17T13:19:32.254Z,102179.38
2023-05-17T13:21:59.184Z,102176.69
2023-05-17T13:24:28.199Z,102175.03
2023-05-17T13:26:54.966Z,102173.38
2023-05-17T13:29:35.237Z,102176.88
2023-05-17T13:32:07.504Z,102173.84
2023-05-17T13:34:34.336Z,102175.13
2023-05-17T13:37:01.321Z,102170.81
2023-05-17T13:39:28.800Z,102158.19
2023-05-17T13:41:55.738Z,102165.47
2023-05-17T13:44:22.846Z,102164.94
2023-05-17T13:46:49.647Z,102160.75
2023-05-17T13:49:17.520Z,102155.47
2023-05-17T13:51:45.133Z,102152.66
2023-05-17T13:54:11.993Z,102157.38
2023-05-17T13:56:39.080Z,102150.09
2023-05-17T13:59:05.844Z,102146.66
2023-05-17T14:01:32.747Z,102138.97
2023-05-17T14:04:00.894Z,102140.03
2023-05-17T14:06:28.348Z,102130.56
2023-05-17T14:08:55.999Z,102138.50
2023-05-17T14:11:22.951Z,102138.97
2023-05-17T14:13:49.800Z,102139.16
2023-05-17T14:16:16.762Z,102126.13
2023-05-17T14:18:43.649Z,102125.88
2023-05-17T14:21:10.591Z,102130.38
2023-05-17T14:23:37.819Z,102124.94
2023-05-17T14:26:07.615Z,102115.25
2023-05-17T14:28:38.182Z,102118.47
2023-05-17T14:31:09.446Z,102106.91
2023-05-17T14:33:36.823Z,102107.03
2023-05-17T14:36:06.853Z,102110.25
2023-05-17T14:38:33.672Z,102101.56
2023-05-17T14:41:01.211Z,102108.78
2023-05-17T14:43:29.278Z,102113.38
2023-05-17T14:45:56.207Z,102109.59
2023-05-17T14:48:23.044Z,102102.88
2023-05-17T14:50:49.970Z,102102.81
2023-05-17T14:53:16.782Z,102105.72
2023-05-17T14:55:43.551Z,102102.69
2023-05-17T14:58:13.636Z,102100.47
2023-05-17T15:00:41.992Z,102109.78
2023-05-17T15:03:09.341Z,102089.94
2023-05-17T15:05:36.574Z,102090.25
2023-05-17T15:08:03.398Z,102084.66
2023-05-17T15:10:30.129Z,102074.31
2023-05-17T15:12:57.041Z,102076.59
2023-05-17T15:15:23.858Z,102072.06
2023-05-17T15:17:50.644Z,102073.59
2023-05-17T15:20:19.011Z,102064.47
2023-05-17T15:22:45.889Z,102070.66
2023-05-17T15:25:13.034Z,102064.25
2023-05-17T15:27:39.784Z,102066.16
2023-05-17T15:30:07.426Z,102068.28
2023-05-17T15:32:34.350Z,102068.88
2023-05-17T15:35:01.166Z,102063.38
2023-05-17T15:37:28.352Z,102059.00
2023-05-17T15:39:55.130Z,102052.22
2023-05-17T15:42:21.890Z,102050.38
2023-05-17T15:44:48.686Z,102050.94
2023-05-17T15:47:15.398Z,102039.84
2023-05-17T15:49:42.217Z,102050.78
2023-05-17T15:52:09.405Z,102053.44
2023-05-17T15:54:36.186Z,102044.06
2023-05-17T15:57:02.948Z,102037.78
2023-05-17T15:59:29.744Z,102041.41
2023-05-17T16:01:56.574Z,102041.91
2023-05-17T16:04:23.333Z,102036.38
2023-05-17T16:06:50.162Z,102034.38
2023-05-17T16:09:16.923Z,102035.00
2023-05-17T16:11:43.813Z,102030.44
2023-05-17T16:14:10.598Z,102042.03
2023-05-17T16:16:37.375Z,102025.41
2023-05-17T16:19:04.742Z,102033.03
2023-05-17T16:21:32.800Z,102028.38
2023-05-17T16:23:59.586Z,102026.59
2023-05-17T16:26:26.661Z,102023.97
2023-05-17T16:28:53.679Z,102008.31
2023-05-17T16:31:20.537Z,102018.06
2023-05-17T16:33:47.409Z,102016.50
2023-05-17T16:36:14.238Z,102021.88
2023-05-17T16:38:41.088Z,102015.44
2023-05-17T16:41:08.069Z,102016.25
2023-05-17T16:43:34.960Z,102023.53
2023-05-17T16:46:02.119Z,102021.97
2023-05-17T16:48:28.998Z,102015.13
2023-05-17T16:50:56.172Z,102012.72
2023-05-17T16:53:23.106Z,102014.66
2023-05-17T16:55:49.921Z,102021.13
2023-05-17T16:58:18.874Z,102011.44
2023-05-17T17:00:45.934Z,102007.78
2023-05-17T17:03:12.777Z,102012.59
2023-05-17T17:05:39.636Z,102015.03
2023-05-17T17:08:06.384Z,102019.50
2023-05-17T17:10:33.297Z,102022.31
2023-05-17T17:13:00.095Z,102004.09
2023-05-17T17:15:27.451Z,102002.38
2023-05-17T17:17:54.292Z,102012.47
2023-05-17T17:20:21.250Z,102011.31
2023-05-17T17:22:48.106Z,102013.66
2023-05-17T17:25:14.974Z,102018.03
2023-05-17T17:27:42.232Z,102018.44
2023-05-17T17:30:09.446Z,102015.19
2023-05-17T17:32:36.393Z,102015.47
2023-05-17T17:35:03.342Z,102013.31
2023-05-17T17:37:30.173Z,102010.31
2023-05-17T17:39:56.951Z,102011.38
2023-05-17T17:42:23.723Z,102009.63
2023-05-17T17:44:50.594Z,102008.81
2023-05-17T17:47:17.473Z,102006.38
2023-05-17T17:49:44.348Z,102007.16
2023-05-17T17:52:11.161Z,101999.06
2023-05-17T17:54:37.937Z,101998.66
2023-05-17T17:57:04.991Z,101999.78
2023-05-17T17:59:31.784Z,102002.16
2023-05-17T18:01:59.865Z,102003.75
2023-05-17T18:04:27.106Z,102002.88
2023-05-17T18:06:54.918Z,101998.34
2023-05-17T18:09:23.403Z,101995.81
2023-05-17T18:11:50.149Z,101993.72
2023-05-17T18:14:16.967Z,101993.66
2023-05-17T18:16:43.932Z,101993.56
2023-05-17T18:19:10.821Z,101992.28
2023-05-17T18:21:37.792Z,101984.66
2023-05-17T18:24:04.882Z,101989.41
2023-05-17T18:26:31.672Z,101989.72
2023-05-17T18:28:58.473Z,101986.41
2023-05-17T18:31:35.879Z,101996.84
2023-05-17T18:34:02.890Z,101990.31
2023-05-17T18:36:29.733Z,101993.06
2023-05-17T18:39:00.978Z,101996.13
2023-05-17T18:41:27.912Z,101988.03
2023-05-17T18:43:54.722Z,101996.03
2023-05-17T18:46:21.542Z,101992.75
2023-05-17T18:48:48.877Z,101995.19
2023-05-17T18:51:15.909Z,102002.75
2023-05-17T18:53:43.414Z,101994.16
2023-05-17T18:56:14.711Z,102000.50
2023-05-17T18:58:41.512Z,101997.88
2023-05-17T19:01:08.630Z,101998.13
2023-05-17T19:03:35.537Z,101998.84
2023-05-17T19:06:02.372Z,101995.03
2023-05-17T19:08:29.212Z,101990.91
2023-05-17T19:10:56.068Z,101996.25
2023-05-17T19:13:22.782Z,101993.44
2023-05-17T19:15:49.683Z,101985.25
2023-05-17T19:18:17.633Z,102000.75
2023-05-17T19:20:45.031Z,101995.34
2023-05-17T19:23:11.938Z,101995.34
2023-05-17T19:25:38.848Z,101990.41
2023-05-17T19:28:05.614Z,101994.34
2023-05-17T19:30:33.149Z,101995.41
2023-05-17T19:33:00.449Z,101997.63
2023-05-17T19:35:27.448Z,102006.72
2023-05-17T19:37:56.733Z,101988.13
2023-05-17T19:40:24.242Z,102004.06
2023-05-17T19:42:51.311Z,102007.91
2023-05-17T19:45:18.122Z,102007.38
2023-05-17T19:47:45.076Z,102010.50
2023-05-17T19:50:12.235Z,102008.38
2023-05-17T19:52:39.317Z,102010.53
2023-05-17T19:55:06.579Z,102015.69
2023-05-17T19:57:33.391Z,102010.38
2023-05-17T20:00:00.103Z,102009.56
2023-05-17T20:02:27.097Z,102016.00
2023-05-17T20:04:54.191Z,102008.59
2023-05-17T20:07:25.756Z,102014.84
2023-05-17T20:09:55.514Z,102014.69
2023-05-17T20:12:25.775Z,102009.75
2023-05-17T20:14:53.644Z,102012.03
2023-05-17T20:17:20.767Z,102011.13
2023-05-17T20:19:47.885Z,102011.50
2023-05-17T20:22:14.844Z,102018.56
2023-05-17T20:24:44.082Z,102026.06
2023-05-17T20:27:11.389Z,102027.63
2023-05-17T20:29:38.552Z,102026.34
2023-05-17T20:32:06.338Z,102027.69
2023-05-17T20:34:33.712Z,102032.31
2023-05-17T20:37:01.190Z,102026.34
2023-05-17T20:39:28.277Z,102030.25
2023-05-17T20:42:01.377Z,102030.88
2023-05-17T20:44:28.213Z,102041.03
2023-05-17T20:46:56.857Z,102028.94
2023-05-17T20:49:23.670Z,102032.00
2023-05-17T20:51:50.458Z,102034.16
2023-05-17T20:54:17.210Z,102044.47
2023-05-17T20:56:44.071Z,102034.25
2023-05-17T20:59:10.977Z,102049.88
2023-05-17T21:01:37.975Z,102039.41
2023-05-17T21:04:05.087Z,102038.22
2023-05-17T21:06:32.834Z,102048.94
2023-05-17T21:09:02.651Z,102039.28
2023-05-17T21:11:29.902Z,102043.72
2023-05-17T21:13:59.996Z,102035.94
2023-05-17T21:16:27.130Z,102051.34
2023-05-17T21:18:53.959Z,102043.69
2023-05-17T21:21:21.310Z,102053.94
2023-05-17T21:23:48.908Z,102057.69
2023-05-17T21:26:16.240Z,102065.50
2023-05-17T21:28:43.117Z,102065.03
2023-05-17T21:31:10.105Z,102070.53
2023-05-17T21:33:36.926Z,102066.25
2023-05-17T21:36:03.937Z,102062.09
2023-05-17T21:38:30.827Z,102063.41
2023-05-17T21:40:57.658Z,102064.47
2023-05-17T21:43:24.625Z,102066.66
2023-05-17T21:45:52.013Z,102067.03
2023-05-17T21:48:18.768Z,102066.66
2023-05-17T21:50:45.695Z,102075.88
2023-05-17T21:53:12.548Z,102065.06
2023-05-17T21:55:56.367Z,102068.09
2023-05-17T21:58:26.741Z,102068.59
2023-05-17T22:00:53.966Z,102058.09
2023-05-17T22:03:21.485Z,102058.09
2023-05-17T22:05:48.435Z,102065.78
2023-05-17T22:08:15.185Z,102061.63
2023-05-17T22:10:42.258Z,102053.94
2023-05-17T22:13:12.290Z,102067.53
2023-05-17T22:15:39.324Z,102058.59
2023-05-17T22:18:06.278Z,102058.81
2023-05-17T22:20:33.264Z,102058.59
2023-05-17T22:23:00.304Z,102061.25
2023-05-17T22:25:27.216Z,102058.47
2023-05-17T22:27:54.004Z,102055.09
2023-05-17T22:30:21.580Z,102054.03
2023-05-17T22:32:48.429Z,102057.91
2023-05-17T22:35:15.234Z,102052.88
2023-05-17T22:37:42.872Z,102054.38
2023-05-17T22:40:10.914Z,102059.88
2023-05-17T22:42:37.784Z,102050.22
2023-05-17T22:45:04.961Z,102054.81
2023-05-17T22:47:32.098Z,102058.75
2023-05-17T22:50:00.845Z,102060.84
2023-05-17T22:52:28.285Z,102059.88
2023-05-17T22:54:55.091Z,102069.44
2023-05-17T22:57:21.880Z,102071.72
2023-05-17T22:59:48.752Z,102071.25
2023-05-17T23:02:15.592Z,102067.53
2023-05-17T23:04:46.025Z,102064.97
2023-05-17T23:07:12.989Z,102068.00
2023-05-17T23:09:40.746Z,102073.44
2023-05-17T23:12:08.978Z,102078.88
2023-05-17T23:14:36.977Z,102072.00
2023-05-17T23:17:04.742Z,102074.69
2023-05-17T23:19:33.209Z,102076.97
2023-05-17T23:22:03.304Z,102072.06
2023-05-17T23:24:30.265Z,102082.44
2023-05-17T23:26:57.839Z,102073.31
2023-05-17T23:29:25.987Z,102084.34
2023-05-17T23:31:53.279Z,102080.16
2023-05-17T23:34:20.148Z,102082.31
2023-05-17T23:36:46.957Z,102080.69
2023-05-17T23:39:13.722Z,102078.72
2023-05-17T23:41:40.519Z,102078.94
2023-05-17T23:44:08.043Z,102079.94
2023-05-17T23:46:34.978Z,102078.53
2023-05-17T23:49:02.424Z,102085.59
2023-05-17T23:51:29.473Z,102085.59
2023-05-17T23:53:57.399Z,102086.47
2023-05-17T23:56:24.191Z,102087.59
2023-05-17T23:58:51.056Z,102092.91
